sensor_id;sensor_type;location;lat;lon;timestamp;temperature;humidity
77865;DHT22;67061;48.524;9.040;2023-04-24T00:01:33;9.20;93.90
77865;DHT22;67061;48.524;9.040;2023-04-24T00:04:02;9.20;93.30
77865;DHT22;67061;48.524;9.040;2023-04-24T00:06:29;9.20;94.10
77865;DHT22;67061;48.524;9.040;2023-04-24T00:08:58;9.20;94.10
77865;DHT22;67061;48.524;9.040;2023-04-24T00:11:25;9.10;94.20
77865;DHT22;67061;48.524;9.040;2023-04-24T00:13:52;9.00;94.40
77865;DHT22;67061;48.524;9.040;2023-04-24T00:16:21;9.00;94.20
77865;DHT22;67061;48.524;9.040;2023-04-24T00:18:47;9.00;94.20
77865;DHT22;67061;48.524;9.040;2023-04-24T00:21:14;9.00;94.10
77865;DHT22;67061;48.524;9.040;2023-04-24T00:23:43;9.00;93.50
77865;DHT22;67061;48.524;9.040;2023-04-24T00:26:10;9.10;92.80
77865;DHT22;67061;48.524;9.040;2023-04-24T00:28:36;9.20;93.00
77865;DHT22;67061;48.524;9.040;2023-04-24T00:31:04;9.20;92.20
77865;DHT22;67061;48.524;9.040;2023-04-24T00:33:32;9.30;92.00
77865;DHT22;67061;48.524;9.040;2023-04-24T00:35:59;9.40;92.20
77865;DHT22;67061;48.524;9.040;2023-04-24T00:38:25;9.40;93.10
77865;DHT22;67061;48.524;9.040;2023-04-24T00:40:52;9.40;93.00
77865;DHT22;67061;48.524;9.040;2023-04-24T00:43:20;9.40;92.60
77865;DHT22;67061;48.524;9.040;2023-04-24T00:45:47;9.40;93.20
77865;DHT22;67061;48.524;9.040;2023-04-24T00:48:14;9.40;92.80
77865;DHT22;67061;48.524;9.040;2023-04-24T00:50:43;9.40;92.50
77865;DHT22;67061;48.524;9.040;2023-04-24T00:53:10;9.30;92.70
77865;DHT22;67061;48.524;9.040;2023-04-24T00:55:37;9.20;93.10
77865;DHT22;67061;48.524;9.040;2023-04-24T00:58:04;9.20;94.00
77865;DHT22;67061;48.524;9.040;2023-04-24T01:00:31;9.20;94.10
77865;DHT22;67061;48.524;9.040;2023-04-24T01:02:59;9.20;94.20
77865;DHT22;67061;48.524;9.040;2023-04-24T01:05:28;9.20;93.70
77865;DHT22;67061;48.524;9.040;2023-04-24T01:07:56;9.20;94.90
77865;DHT22;67061;48.524;9.040;2023-04-24T01:10:25;9.20;96.20
77865;DHT22;67061;48.524;9.040;2023-04-24T01:12:54;9.20;96.90
77865;DHT22;67061;48.524;9.040;2023-04-24T01:15:21;9.20;97.90
77865;DHT22;67061;48.524;9.040;2023-04-24T01:17:48;9.10;98.50
77865;DHT22;67061;48.524;9.040;2023-04-24T01:20:16;9.00;99.90
77865;DHT22;67061;48.524;9.040;2023-04-24T01:22:45;9.00;99.90
77865;DHT22;67061;48.524;9.040;2023-04-24T01:25:11;8.90;99.90
77865;DHT22;67061;48.524;9.040;2023-04-24T01:27:38;8.90;99.90
77865;DHT22;67061;48.524;9.040;2023-04-24T01:30:07;8.90;99.90
77865;DHT22;67061;48.524;9.040;2023-04-24T01:32:34;8.90;99.90
77865;DHT22;67061;48.524;9.040;2023-04-24T01:35:02;8.80;99.90
77865;DHT22;67061;48.524;9.040;2023-04-24T01:37:29;8.80;99.90
77865;DHT22;67061;48.524;9.040;2023-04-24T01:39:59;8.90;99.90
77865;DHT22;67061;48.524;9.040;2023-04-24T01:42:26;8.90;99.90
77865;DHT22;67061;48.524;9.040;2023-04-24T01:44:53;8.80;99.90
77865;DHT22;67061;48.524;9.040;2023-04-24T01:47:21;8.80;99.90
77865;DHT22;67061;48.524;9.040;2023-04-24T01:49:48;8.80;99.90
77865;DHT22;67061;48.524;9.040;2023-04-24T01:52:16;8.80;99.90
77865;DHT22;67061;48.524;9.040;2023-04-24T01:54:44;8.80;99.90
77865;DHT22;67061;48.524;9.040;2023-04-24T01:57:13;8.80;99.90
77865;DHT22;67061;48.524;9.040;2023-04-24T01:59:40;8.90;99.90
77865;DHT22;67061;48.524;9.040;2023-04-24T02:02:06;8.80;99.90
77865;DHT22;67061;48.524;9.040;2023-04-24T02:04:33;8.80;99.90
77865;DHT22;67061;48.524;9.040;2023-04-24T02:07:00;8.80;99.90
77865;DHT22;67061;48.524;9.040;2023-04-24T02:09:27;8.80;99.90
77865;DHT22;67061;48.524;9.040;2023-04-24T02:11:54;8.70;99.90
77865;DHT22;67061;48.524;9.040;2023-04-24T02:14:23;8.70;99.90
77865;DHT22;67061;48.524;9.040;2023-04-24T02:16:50;8.80;99.90
77865;DHT22;67061;48.524;9.040;2023-04-24T02:19:17;8.70;99.90
77865;DHT22;67061;48.524;9.040;2023-04-24T02:21:43;8.70;99.90
77865;DHT22;67061;48.524;9.040;2023-04-24T02:24:10;8.80;99.90
77865;DHT22;67061;48.524;9.040;2023-04-24T02:26:37;8.80;99.90
77865;DHT22;67061;48.524;9.040;2023-04-24T02:29:04;8.80;99.90
77865;DHT22;67061;48.524;9.040;2023-04-24T02:31:33;8.80;99.90
77865;DHT22;67061;48.524;9.040;2023-04-24T02:33:59;8.70;99.90
77865;DHT22;67061;48.524;9.040;2023-04-24T02:36:26;8.70;99.90
77865;DHT22;67061;48.524;9.040;2023-04-24T02:38:53;8.60;99.90
77865;DHT22;67061;48.524;9.040;2023-04-24T02:41:20;8.60;99.90
77865;DHT22;67061;48.524;9.040;2023-04-24T02:43:47;8.60;99.90
77865;DHT22;67061;48.524;9.040;2023-04-24T02:46:14;8.60;99.90
77865;DHT22;67061;48.524;9.040;2023-04-24T02:48:42;8.60;99.90
77865;DHT22;67061;48.524;9.040;2023-04-24T02:51:09;8.60;99.90
77865;DHT22;67061;48.524;9.040;2023-04-24T02:53:36;8.60;99.90
77865;DHT22;67061;48.524;9.040;2023-04-24T02:56:03;8.80;99.90
77865;DHT22;67061;48.524;9.040;2023-04-24T02:58:30;8.80;99.90
77865;DHT22;67061;48.524;9.040;2023-04-24T03:00:57;8.80;99.90
77865;DHT22;67061;48.524;9.040;2023-04-24T03:03:24;8.80;99.90
77865;DHT22;67061;48.524;9.040;2023-04-24T03:05:52;8.80;99.90
77865;DHT22;67061;48.524;9.040;2023-04-24T03:08:19;8.80;99.90
77865;DHT22;67061;48.524;9.040;2023-04-24T03:10:46;8.80;99.90
77865;DHT22;67061;48.524;9.040;2023-04-24T03:13:13;8.70;99.90
77865;DHT22;67061;48.524;9.040;2023-04-24T03:15:40;8.70;99.90
77865;DHT22;67061;48.524;9.040;2023-04-24T03:18:07;8.70;99.90
77865;DHT22;67061;48.524;9.040;2023-04-24T03:20:34;8.60;99.90
77865;DHT22;67061;48.524;9.040;2023-04-24T03:23:03;8.70;99.90
77865;DHT22;67061;48.524;9.040;2023-04-24T03:25:30;8.60;99.90
77865;DHT22;67061;48.524;9.040;2023-04-24T03:27:57;8.60;99.90
77865;DHT22;67061;48.524;9.040;2023-04-24T03:30:24;8.60;99.90
77865;DHT22;67061;48.524;9.040;2023-04-24T03:32:51;8.60;99.90
77865;DHT22;67061;48.524;9.040;2023-04-24T03:35:18;8.60;99.90
77865;DHT22;67061;48.524;9.040;2023-04-24T03:37:46;8.60;99.90
77865;DHT22;67061;48.524;9.040;2023-04-24T03:40:15;8.50;99.90
77865;DHT22;67061;48.524;9.040;2023-04-24T03:42:42;8.50;99.90
77865;DHT22;67061;48.524;9.040;2023-04-24T03:45:09;8.50;99.90
77865;DHT22;67061;48.524;9.040;2023-04-24T03:47:36;8.50;99.90
77865;DHT22;67061;48.524;9.040;2023-04-24T03:50:04;8.50;99.90
77865;DHT22;67061;48.524;9.040;2023-04-24T03:52:31;8.40;99.90
77865;DHT22;67061;48.524;9.040;2023-04-24T03:54:58;8.40;99.90
77865;DHT22;67061;48.524;9.040;2023-04-24T03:57:26;8.30;99.90
77865;DHT22;67061;48.524;9.040;2023-04-24T03:59:53;8.20;99.90
77865;DHT22;67061;48.524;9.040;2023-04-24T04:02:20;8.20;99.90
77865;DHT22;67061;48.524;9.040;2023-04-24T04:04:47;8.20;99.90
77865;DHT22;67061;48.524;9.040;2023-04-24T04:07:13;8.10;99.90
77865;DHT22;67061;48.524;9.040;2023-04-24T04:09:40;8.10;99.90
77865;DHT22;67061;48.524;9.040;2023-04-24T04:12:07;8.00;99.90
77865;DHT22;67061;48.524;9.040;2023-04-24T04:14:35;8.00;99.90
77865;DHT22;67061;48.524;9.040;2023-04-24T04:17:02;8.00;99.90
77865;DHT22;67061;48.524;9.040;2023-04-24T04:19:29;8.00;99.90
77865;DHT22;67061;48.524;9.040;2023-04-24T04:21:56;8.00;99.90
77865;DHT22;67061;48.524;9.040;2023-04-24T04:24:23;8.00;99.90
77865;DHT22;67061;48.524;9.040;2023-04-24T04:26:52;8.00;99.90
77865;DHT22;67061;48.524;9.040;2023-04-24T04:29:22;8.00;99.90
77865;DHT22;67061;48.524;9.040;2023-04-24T04:31:50;8.00;99.90
77865;DHT22;67061;48.524;9.040;2023-04-24T04:34:17;8.10;99.90
77865;DHT22;67061;48.524;9.040;2023-04-24T04:36:45;8.10;99.90
77865;DHT22;67061;48.524;9.040;2023-04-24T04:39:12;8.10;99.90
77865;DHT22;67061;48.524;9.040;2023-04-24T04:41:40;8.10;99.90
77865;DHT22;67061;48.524;9.040;2023-04-24T04:44:07;8.10;99.90
77865;DHT22;67061;48.524;9.040;2023-04-24T04:46:35;8.10;99.90
77865;DHT22;67061;48.524;9.040;2023-04-24T04:49:04;8.00;99.90
77865;DHT22;67061;48.524;9.040;2023-04-24T04:51:31;8.10;99.90
77865;DHT22;67061;48.524;9.040;2023-04-24T04:53:58;8.10;99.90
77865;DHT22;67061;48.524;9.040;2023-04-24T04:56:26;8.10;99.90
77865;DHT22;67061;48.524;9.040;2023-04-24T04:58:52;8.20;99.90
77865;DHT22;67061;48.524;9.040;2023-04-24T05:01:19;8.20;99.90
77865;DHT22;67061;48.524;9.040;2023-04-24T05:03:48;8.20;99.90
77865;DHT22;67061;48.524;9.040;2023-04-24T05:06:16;8.20;99.90
77865;DHT22;67061;48.524;9.040;2023-04-24T05:08:43;8.20;99.90
77865;DHT22;67061;48.524;9.040;2023-04-24T05:11:10;8.20;99.90
77865;DHT22;67061;48.524;9.040;2023-04-24T05:13:37;8.20;99.90
77865;DHT22;67061;48.524;9.040;2023-04-24T05:16:04;8.20;99.90
77865;DHT22;67061;48.524;9.040;2023-04-24T05:18:31;8.20;99.90
77865;DHT22;67061;48.524;9.040;2023-04-24T05:20:58;8.10;99.90
77865;DHT22;67061;48.524;9.040;2023-04-24T05:23:26;8.10;99.90
77865;DHT22;67061;48.524;9.040;2023-04-24T05:25:53;8.10;99.90
77865;DHT22;67061;48.524;9.040;2023-04-24T05:28:20;8.00;99.90
77865;DHT22;67061;48.524;9.040;2023-04-24T05:30:47;8.00;99.90
77865;DHT22;67061;48.524;9.040;2023-04-24T05:33:14;8.00;99.90
77865;DHT22;67061;48.524;9.040;2023-04-24T05:35:41;8.00;99.90
77865;DHT22;67061;48.524;9.040;2023-04-24T05:38:12;8.00;99.90
77865;DHT22;67061;48.524;9.040;2023-04-24T05:40:40;8.00;99.90
77865;DHT22;67061;48.524;9.040;2023-04-24T05:43:07;8.00;99.90
77865;DHT22;67061;48.524;9.040;2023-04-24T05:45:33;7.90;99.90
77865;DHT22;67061;48.524;9.040;2023-04-24T05:48:01;7.90;99.90
77865;DHT22;67061;48.524;9.040;2023-04-24T05:50:28;7.80;99.90
77865;DHT22;67061;48.524;9.040;2023-04-24T05:52:55;7.80;99.90
77865;DHT22;67061;48.524;9.040;2023-04-24T05:55:23;7.90;99.90
77865;DHT22;67061;48.524;9.040;2023-04-24T05:57:52;7.90;99.90
77865;DHT22;67061;48.524;9.040;2023-04-24T06:00:19;8.00;99.90
77865;DHT22;67061;48.524;9.040;2023-04-24T06:02:47;8.00;99.90
77865;DHT22;67061;48.524;9.040;2023-04-24T06:05:14;8.00;99.90
77865;DHT22;67061;48.524;9.040;2023-04-24T06:07:41;8.00;99.90
77865;DHT22;67061;48.524;9.040;2023-04-24T06:10:09;7.90;99.90
77865;DHT22;67061;48.524;9.040;2023-04-24T06:12:36;7.80;99.90
77865;DHT22;67061;48.524;9.040;2023-04-24T06:15:06;7.90;99.90
77865;DHT22;67061;48.524;9.040;2023-04-24T06:17:33;7.90;99.90
77865;DHT22;67061;48.524;9.040;2023-04-24T06:20:00;7.90;99.90
77865;DHT22;67061;48.524;9.040;2023-04-24T06:22:29;8.00;99.90
77865;DHT22;67061;48.524;9.040;2023-04-24T06:24:56;8.00;99.90
77865;DHT22;67061;48.524;9.040;2023-04-24T06:27:23;8.00;99.90
77865;DHT22;67061;48.524;9.040;2023-04-24T06:29:50;8.10;99.90
77865;DHT22;67061;48.524;9.040;2023-04-24T06:32:22;8.10;99.90
77865;DHT22;67061;48.524;9.040;2023-04-24T06:34:49;8.20;99.90
77865;DHT22;67061;48.524;9.040;2023-04-24T06:37:17;8.30;99.90
77865;DHT22;67061;48.524;9.040;2023-04-24T06:39:45;8.40;99.90
77865;DHT22;67061;48.524;9.040;2023-04-24T06:42:12;8.60;99.90
77865;DHT22;67061;48.524;9.040;2023-04-24T06:44:38;8.60;99.90
77865;DHT22;67061;48.524;9.040;2023-04-24T06:47:07;8.80;99.90
77865;DHT22;67061;48.524;9.040;2023-04-24T06:49:36;8.90;99.90
77865;DHT22;67061;48.524;9.040;2023-04-24T06:52:03;9.00;99.90
77865;DHT22;67061;48.524;9.040;2023-04-24T06:54:31;9.00;99.90
77865;DHT22;67061;48.524;9.040;2023-04-24T06:56:58;9.20;99.90
77865;DHT22;67061;48.524;9.040;2023-04-24T06:59:26;9.20;98.20
77865;DHT22;67061;48.524;9.040;2023-04-24T07:01:53;9.40;98.10
77865;DHT22;67061;48.524;9.040;2023-04-24T07:04:20;9.40;97.30
77865;DHT22;67061;48.524;9.040;2023-04-24T07:06:48;9.60;97.90
77865;DHT22;67061;48.524;9.040;2023-04-24T07:09:16;9.60;95.60
77865;DHT22;67061;48.524;9.040;2023-04-24T07:11:44;9.60;95.00
77865;DHT22;67061;48.524;9.040;2023-04-24T07:14:11;9.60;95.60
77865;DHT22;67061;48.524;9.040;2023-04-24T07:16:38;9.60;95.40
77865;DHT22;67061;48.524;9.040;2023-04-24T07:19:05;9.70;95.80
77865;DHT22;67061;48.524;9.040;2023-04-24T07:21:32;9.80;94.00
77865;DHT22;67061;48.524;9.040;2023-04-24T07:24:01;10.00;91.50
77865;DHT22;67061;48.524;9.040;2023-04-24T07:26:29;10.00;87.30
77865;DHT22;67061;48.524;9.040;2023-04-24T07:28:56;9.90;86.70
77865;DHT22;67061;48.524;9.040;2023-04-24T07:31:23;10.00;88.60
77865;DHT22;67061;48.524;9.040;2023-04-24T07:33:50;9.80;85.50
77865;DHT22;67061;48.524;9.040;2023-04-24T07:36:17;9.80;85.50
77865;DHT22;67061;48.524;9.040;2023-04-24T07:38:44;10.00;84.80
77865;DHT22;67061;48.524;9.040;2023-04-24T07:41:13;10.00;85.40
77865;DHT22;67061;48.524;9.040;2023-04-24T07:43:40;10.10;82.20
77865;DHT22;67061;48.524;9.040;2023-04-24T07:46:07;10.10;83.90
77865;DHT22;67061;48.524;9.040;2023-04-24T07:48:35;10.10;83.90
77865;DHT22;67061;48.524;9.040;2023-04-24T07:51:02;10.00;83.70
77865;DHT22;67061;48.524;9.040;2023-04-24T07:53:29;10.00;83.00
77865;DHT22;67061;48.524;9.040;2023-04-24T07:55:56;10.00;80.80
77865;DHT22;67061;48.524;9.040;2023-04-24T07:58:24;9.90;81.90
77865;DHT22;67061;48.524;9.040;2023-04-24T08:00:51;10.00;79.90
77865;DHT22;67061;48.524;9.040;2023-04-24T08:03:18;10.00;79.40
77865;DHT22;67061;48.524;9.040;2023-04-24T08:05:45;10.00;77.80
77865;DHT22;67061;48.524;9.040;2023-04-24T08:08:12;10.00;75.50
77865;DHT22;67061;48.524;9.040;2023-04-24T08:10:40;10.00;76.30
77865;DHT22;67061;48.524;9.040;2023-04-24T08:13:07;10.10;75.70
77865;DHT22;67061;48.524;9.040;2023-04-24T08:15:35;10.10;76.00
77865;DHT22;67061;48.524;9.040;2023-04-24T08:18:02;10.10;73.20
77865;DHT22;67061;48.524;9.040;2023-04-24T08:20:29;10.00;71.50
77865;DHT22;67061;48.524;9.040;2023-04-24T08:22:56;10.00;73.10
77865;DHT22;67061;48.524;9.040;2023-04-24T08:25:23;10.00;70.50
77865;DHT22;67061;48.524;9.040;2023-04-24T08:27:50;10.00;72.10
77865;DHT22;67061;48.524;9.040;2023-04-24T08:30:17;10.00;70.30
77865;DHT22;67061;48.524;9.040;2023-04-24T08:32:46;10.10;70.40
77865;DHT22;67061;48.524;9.040;2023-04-24T08:35:13;10.20;71.70
77865;DHT22;67061;48.524;9.040;2023-04-24T08:37:39;10.30;71.30
77865;DHT22;67061;48.524;9.040;2023-04-24T08:40:12;10.40;69.80
77865;DHT22;67061;48.524;9.040;2023-04-24T08:42:40;10.40;67.20
77865;DHT22;67061;48.524;9.040;2023-04-24T08:45:09;10.50;68.70
77865;DHT22;67061;48.524;9.040;2023-04-24T08:47:37;10.70;70.00
77865;DHT22;67061;48.524;9.040;2023-04-24T08:50:07;10.90;70.20
77865;DHT22;67061;48.524;9.040;2023-04-24T08:52:35;11.10;66.50
77865;DHT22;67061;48.524;9.040;2023-04-24T08:55:02;11.40;65.60
77865;DHT22;67061;48.524;9.040;2023-04-24T08:57:30;11.70;65.70
77865;DHT22;67061;48.524;9.040;2023-04-24T08:59:59;11.80;62.40
77865;DHT22;67061;48.524;9.040;2023-04-24T09:02:26;11.50;63.60
77865;DHT22;67061;48.524;9.040;2023-04-24T09:04:53;11.30;64.70
77865;DHT22;67061;48.524;9.040;2023-04-24T09:07:23;11.10;65.40
77865;DHT22;67061;48.524;9.040;2023-04-24T09:09:51;11.10;65.40
77865;DHT22;67061;48.524;9.040;2023-04-24T09:12:19;11.10;64.80
77865;DHT22;67061;48.524;9.040;2023-04-24T09:14:46;11.10;66.20
77865;DHT22;67061;48.524;9.040;2023-04-24T09:17:14;11.20;64.70
77865;DHT22;67061;48.524;9.040;2023-04-24T09:19:41;11.30;63.60
77865;DHT22;67061;48.524;9.040;2023-04-24T09:22:09;11.30;64.80
77865;DHT22;67061;48.524;9.040;2023-04-24T09:24:38;11.40;65.40
77865;DHT22;67061;48.524;9.040;2023-04-24T09:27:05;11.70;66.40
77865;DHT22;67061;48.524;9.040;2023-04-24T09:29:33;11.80;62.60
77865;DHT22;67061;48.524;9.040;2023-04-24T09:32:18;11.50;64.40
77865;DHT22;67061;48.524;9.040;2023-04-24T09:34:47;11.40;63.90
77865;DHT22;67061;48.524;9.040;2023-04-24T09:37:18;11.30;64.50
77865;DHT22;67061;48.524;9.040;2023-04-24T09:40:13;11.30;64.40
77865;DHT22;67061;48.524;9.040;2023-04-24T09:42:43;11.40;64.10
77865;DHT22;67061;48.524;9.040;2023-04-24T09:45:12;11.50;64.20
77865;DHT22;67061;48.524;9.040;2023-04-24T09:47:39;11.50;62.30
77865;DHT22;67061;48.524;9.040;2023-04-24T09:50:10;11.50;62.40
77865;DHT22;67061;48.524;9.040;2023-04-24T09:52:40;11.40;64.40
77865;DHT22;67061;48.524;9.040;2023-04-24T09:55:12;11.40;62.60
77865;DHT22;67061;48.524;9.040;2023-04-24T09:57:47;11.40;62.00
77865;DHT22;67061;48.524;9.040;2023-04-24T10:00:19;11.30;61.50
77865;DHT22;67061;48.524;9.040;2023-04-24T10:02:50;11.30;63.20
77865;DHT22;67061;48.524;9.040;2023-04-24T10:05:17;11.30;60.60
77865;DHT22;67061;48.524;9.040;2023-04-24T10:07:45;11.20;60.80
77865;DHT22;67061;48.524;9.040;2023-04-24T10:10:13;11.20;61.70
77865;DHT22;67061;48.524;9.040;2023-04-24T10:12:40;11.40;58.20
77865;DHT22;67061;48.524;9.040;2023-04-24T10:15:10;11.50;59.70
77865;DHT22;67061;48.524;9.040;2023-04-24T10:17:39;11.90;59.80
77865;DHT22;67061;48.524;9.040;2023-04-24T10:20:07;12.20;59.20
77865;DHT22;67061;48.524;9.040;2023-04-24T10:22:35;12.20;56.50
77865;DHT22;67061;48.524;9.040;2023-04-24T10:25:04;12.00;57.70
77865;DHT22;67061;48.524;9.040;2023-04-24T10:27:34;12.00;58.50
77865;DHT22;67061;48.524;9.040;2023-04-24T10:30:03;12.00;58.70
77865;DHT22;67061;48.524;9.040;2023-04-24T10:32:30;11.90;59.80
77865;DHT22;67061;48.524;9.040;2023-04-24T10:34:57;12.00;59.00
77865;DHT22;67061;48.524;9.040;2023-04-24T10:37:25;11.90;58.40
77865;DHT22;67061;48.524;9.040;2023-04-24T10:39:53;11.90;59.40
77865;DHT22;67061;48.524;9.040;2023-04-24T10:42:20;11.70;58.40
77865;DHT22;67061;48.524;9.040;2023-04-24T10:44:49;11.70;59.10
77865;DHT22;67061;48.524;9.040;2023-04-24T10:47:16;11.70;60.10
77865;DHT22;67061;48.524;9.040;2023-04-24T10:49:43;11.70;60.50
77865;DHT22;67061;48.524;9.040;2023-04-24T10:52:10;11.50;62.40
77865;DHT22;67061;48.524;9.040;2023-04-24T10:54:42;11.30;62.30
77865;DHT22;67061;48.524;9.040;2023-04-24T10:57:28;11.30;63.40
77865;DHT22;67061;48.524;9.040;2023-04-24T11:00:14;11.30;63.60
77865;DHT22;67061;48.524;9.040;2023-04-24T11:02:41;11.30;63.70
77865;DHT22;67061;48.524;9.040;2023-04-24T11:05:15;11.30;63.90
77865;DHT22;67061;48.524;9.040;2023-04-24T11:10:27;11.40;63.80
77865;DHT22;67061;48.524;9.040;2023-04-24T11:12:54;11.50;63.40
77865;DHT22;67061;48.524;9.040;2023-04-24T11:15:23;11.50;62.50
77865;DHT22;67061;48.524;9.040;2023-04-24T11:17:50;11.50;64.20
77865;DHT22;67061;48.524;9.040;2023-04-24T11:20:23;11.70;64.20
77865;DHT22;67061;48.524;9.040;2023-04-24T11:22:53;11.70;62.80
77865;DHT22;67061;48.524;9.040;2023-04-24T11:25:23;11.70;61.70
77865;DHT22;67061;48.524;9.040;2023-04-24T11:27:51;11.60;61.40
77865;DHT22;67061;48.524;9.040;2023-04-24T11:30:31;11.70;61.80
77865;DHT22;67061;48.524;9.040;2023-04-24T11:33:02;11.70;61.50
77865;DHT22;67061;48.524;9.040;2023-04-24T11:35:30;11.60;62.80
77865;DHT22;67061;48.524;9.040;2023-04-24T11:38:03;11.40;62.60
77865;DHT22;67061;48.524;9.040;2023-04-24T11:40:31;11.20;63.30
77865;DHT22;67061;48.524;9.040;2023-04-24T11:43:00;11.20;65.10
77865;DHT22;67061;48.524;9.040;2023-04-24T11:45:28;11.10;64.10
77865;DHT22;67061;48.524;9.040;2023-04-24T11:47:57;11.10;64.10
77865;DHT22;67061;48.524;9.040;2023-04-24T11:50:25;11.30;63.60
77865;DHT22;67061;48.524;9.040;2023-04-24T11:52:53;11.30;62.80
77865;DHT22;67061;48.524;9.040;2023-04-24T11:55:28;11.20;62.20
77865;DHT22;67061;48.524;9.040;2023-04-24T11:57:57;11.10;62.20
77865;DHT22;67061;48.524;9.040;2023-04-24T12:00:25;11.20;62.80
77865;DHT22;67061;48.524;9.040;2023-04-24T12:03:05;11.10;62.10
77865;DHT22;67061;48.524;9.040;2023-04-24T12:05:32;11.10;62.20
77865;DHT22;67061;48.524;9.040;2023-04-24T12:08:00;10.90;63.00
77865;DHT22;67061;48.524;9.040;2023-04-24T12:10:28;10.80;63.80
77865;DHT22;67061;48.524;9.040;2023-04-24T12:12:57;10.60;65.30
77865;DHT22;67061;48.524;9.040;2023-04-24T12:15:24;10.60;64.70
77865;DHT22;67061;48.524;9.040;2023-04-24T12:17:53;10.60;64.80
77865;DHT22;67061;48.524;9.040;2023-04-24T12:20:26;10.60;64.60
77865;DHT22;67061;48.524;9.040;2023-04-24T12:22:54;10.60;65.30
77865;DHT22;67061;48.524;9.040;2023-04-24T12:25:22;10.50;65.00
77865;DHT22;67061;48.524;9.040;2023-04-24T12:27:53;10.40;65.20
77865;DHT22;67061;48.524;9.040;2023-04-24T12:30:20;10.30;64.40
77865;DHT22;67061;48.524;9.040;2023-04-24T12:32:49;10.30;65.40
77865;DHT22;67061;48.524;9.040;2023-04-24T12:35:20;10.30;66.60
77865;DHT22;67061;48.524;9.040;2023-04-24T12:37:49;10.30;66.40
77865;DHT22;67061;48.524;9.040;2023-04-24T12:40:17;10.40;66.30
77865;DHT22;67061;48.524;9.040;2023-04-24T12:42:45;10.30;65.00
77865;DHT22;67061;48.524;9.040;2023-04-24T12:45:13;10.30;65.20
77865;DHT22;67061;48.524;9.040;2023-04-24T12:47:41;10.30;64.90
77865;DHT22;67061;48.524;9.040;2023-04-24T12:50:09;10.50;64.50
77865;DHT22;67061;48.524;9.040;2023-04-24T12:52:36;10.60;66.10
77865;DHT22;67061;48.524;9.040;2023-04-24T12:55:07;10.60;66.10
77865;DHT22;67061;48.524;9.040;2023-04-24T12:57:35;10.50;67.00
77865;DHT22;67061;48.524;9.040;2023-04-24T13:00:04;10.70;66.70
77865;DHT22;67061;48.524;9.040;2023-04-24T13:02:31;10.90;65.80
77865;DHT22;67061;48.524;9.040;2023-04-24T13:04:58;11.00;65.30
77865;DHT22;67061;48.524;9.040;2023-04-24T13:07:26;11.10;65.00
77865;DHT22;67061;48.524;9.040;2023-04-24T13:09:54;11.30;63.40
77865;DHT22;67061;48.524;9.040;2023-04-24T13:12:22;11.50;62.50
77865;DHT22;67061;48.524;9.040;2023-04-24T13:14:51;11.60;63.00
77865;DHT22;67061;48.524;9.040;2023-04-24T13:17:18;11.20;60.90
77865;DHT22;67061;48.524;9.040;2023-04-24T13:19:45;10.90;61.80
77865;DHT22;67061;48.524;9.040;2023-04-24T13:22:12;10.90;63.20
77865;DHT22;67061;48.524;9.040;2023-04-24T13:24:40;10.90;62.70
77865;DHT22;67061;48.524;9.040;2023-04-24T13:27:07;10.90;63.20
77865;DHT22;67061;48.524;9.040;2023-04-24T13:29:36;10.90;62.90
77865;DHT22;67061;48.524;9.040;2023-04-24T13:32:03;10.90;62.30
77865;DHT22;67061;48.524;9.040;2023-04-24T13:34:30;10.90;63.20
77865;DHT22;67061;48.524;9.040;2023-04-24T13:36:57;10.80;63.40
77865;DHT22;67061;48.524;9.040;2023-04-24T13:39:25;10.80;63.00
77865;DHT22;67061;48.524;9.040;2023-04-24T13:41:53;10.90;64.30
77865;DHT22;67061;48.524;9.040;2023-04-24T13:44:21;11.00;64.00
77865;DHT22;67061;48.524;9.040;2023-04-24T13:46:51;11.10;65.00
77865;DHT22;67061;48.524;9.040;2023-04-24T13:49:20;11.10;64.00
77865;DHT22;67061;48.524;9.040;2023-04-24T13:51:48;11.20;63.00
77865;DHT22;67061;48.524;9.040;2023-04-24T13:54:15;11.30;64.20
77865;DHT22;67061;48.524;9.040;2023-04-24T13:56:42;11.50;61.60
77865;DHT22;67061;48.524;9.040;2023-04-24T13:59:09;11.50;60.70
77865;DHT22;67061;48.524;9.040;2023-04-24T14:01:35;11.50;61.00
77865;DHT22;67061;48.524;9.040;2023-04-24T14:04:04;11.50;61.20
77865;DHT22;67061;48.524;9.040;2023-04-24T14:06:31;11.50;60.60
77865;DHT22;67061;48.524;9.040;2023-04-24T14:08:58;11.40;61.60
77865;DHT22;67061;48.524;9.040;2023-04-24T14:11:26;11.40;62.00
77865;DHT22;67061;48.524;9.040;2023-04-24T14:13:54;11.30;60.50
77865;DHT22;67061;48.524;9.040;2023-04-24T14:16:22;11.20;60.90
77865;DHT22;67061;48.524;9.040;2023-04-24T14:18:49;11.20;61.10
77865;DHT22;67061;48.524;9.040;2023-04-24T14:21:17;11.10;61.80
77865;DHT22;67061;48.524;9.040;2023-04-24T14:23:44;11.00;60.80
77865;DHT22;67061;48.524;9.040;2023-04-24T14:26:11;10.90;61.40
77865;DHT22;67061;48.524;9.040;2023-04-24T14:28:38;10.90;61.60
77865;DHT22;67061;48.524;9.040;2023-04-24T14:31:05;10.80;61.70
77865;DHT22;67061;48.524;9.040;2023-04-24T14:33:32;10.80;62.50
77865;DHT22;67061;48.524;9.040;2023-04-24T14:35:59;10.80;62.20
77865;DHT22;67061;48.524;9.040;2023-04-24T14:38:29;10.80;62.80
77865;DHT22;67061;48.524;9.040;2023-04-24T14:40:57;10.80;62.60
77865;DHT22;67061;48.524;9.040;2023-04-24T14:43:24;10.90;62.10
77865;DHT22;67061;48.524;9.040;2023-04-24T14:45:50;11.00;63.20
77865;DHT22;67061;48.524;9.040;2023-04-24T14:48:17;10.90;62.80
77865;DHT22;67061;48.524;9.040;2023-04-24T14:50:44;10.90;62.60
77865;DHT22;67061;48.524;9.040;2023-04-24T14:53:11;10.90;63.30
77865;DHT22;67061;48.524;9.040;2023-04-24T14:55:39;10.90;62.70
77865;DHT22;67061;48.524;9.040;2023-04-24T14:58:06;10.90;62.80
77865;DHT22;67061;48.524;9.040;2023-04-24T15:00:33;10.90;62.40
77865;DHT22;67061;48.524;9.040;2023-04-24T15:03:00;11.00;63.20
77865;DHT22;67061;48.524;9.040;2023-04-24T15:05:27;11.00;63.50
77865;DHT22;67061;48.524;9.040;2023-04-24T15:07:55;11.10;62.80
77865;DHT22;67061;48.524;9.040;2023-04-24T15:10:22;11.10;62.40
77865;DHT22;67061;48.524;9.040;2023-04-24T15:12:52;11.10;61.30
77865;DHT22;67061;48.524;9.040;2023-04-24T15:15:19;11.10;62.50
77865;DHT22;67061;48.524;9.040;2023-04-24T15:17:46;11.10;62.20
77865;DHT22;67061;48.524;9.040;2023-04-24T15:20:13;11.10;63.40
77865;DHT22;67061;48.524;9.040;2023-04-24T15:22:40;11.10;62.40
77865;DHT22;67061;48.524;9.040;2023-04-24T15:25:07;11.10;61.40
77865;DHT22;67061;48.524;9.040;2023-04-24T15:27:41;11.20;61.80
77865;DHT22;67061;48.524;9.040;2023-04-24T15:30:10;11.20;62.10
77865;DHT22;67061;48.524;9.040;2023-04-24T15:32:38;11.20;63.30
77865;DHT22;67061;48.524;9.040;2023-04-24T15:35:06;11.20;62.50
77865;DHT22;67061;48.524;9.040;2023-04-24T15:37:33;11.20;63.70
77865;DHT22;67061;48.524;9.040;2023-04-24T15:40:00;11.30;63.60
77865;DHT22;67061;48.524;9.040;2023-04-24T15:42:29;11.30;63.00
77865;DHT22;67061;48.524;9.040;2023-04-24T15:44:56;11.20;61.70